sensor_id;sensor_type;location;lat;lon;timestamp;P1;durP1;ratioP1;P2;durP2;ratioP2
13252;SDS011;6693;54.370;10.132;2024-02-21T00:00:07;19.17;;;6.50;;
13252;SDS011;6693;54.370;10.132;2024-02-21T00:01:14;17.75;;;6.93;;
13252;SDS011;6693;54.370;10.132;2024-02-21T00:02:19;25.10;;;7.20;;
13252;SDS011;6693;54.370;10.132;2024-02-21T00:03:20;21.58;;;6.65;;
13252;SDS011;6693;54.370;10.132;2024-02-21T00:04:24;24.80;;;7.43;;
13252;SDS011;6693;54.370;10.132;2024-02-21T00:05:25;21.02;;;6.60;;
13252;SDS011;6693;54.370;10.132;2024-02-21T00:06:29;18.40;;;6.05;;
13252;SDS011;6693;54.370;10.132;2024-02-21T00:07:30;27.70;;;7.43;;
13252;SDS011;6693;54.370;10.132;2024-02-21T00:08:33;18.55;;;5.75;;
13252;SDS011;6693;54.370;10.132;2024-02-21T00:09:36;22.42;;;7.10;;
13252;SDS011;6693;54.370;10.132;2024-02-21T00:10:42;23.23;;;5.93;;
13252;SDS011;6693;54.370;10.132;2024-02-21T00:11:43;26.48;;;7.22;;
13252;SDS011;6693;54.370;10.132;2024-02-21T00:12:50;27.55;;;6.60;;
13252;SDS011;6693;54.370;10.132;2024-02-21T00:13:53;21.73;;;6.28;;
13252;SDS011;6693;54.370;10.132;2024-02-21T00:14:59;22.48;;;6.43;;
13252;SDS011;6693;54.370;10.132;2024-02-21T00:16:00;23.10;;;6.40;;
13252;SDS011;6693;54.370;10.132;2024-02-21T00:17:04;20.70;;;6.22;;
13252;SDS011;6693;54.370;10.132;2024-02-21T00:18:08;16.58;;;6.20;;
13252;SDS011;6693;54.370;10.132;2024-02-21T00:19:13;20.83;;;6.25;;
13252;SDS011;6693;54.370;10.132;2024-02-21T00:20:14;21.13;;;6.63;;
13252;SDS011;6693;54.370;10.132;2024-02-21T00:21:18;22.65;;;6.72;;
13252;SDS011;6693;54.370;10.132;2024-02-21T00:22:19;16.63;;;5.60;;
13252;SDS011;6693;54.370;10.132;2024-02-21T00:23:23;26.00;;;7.15;;
13252;SDS011;6693;54.370;10.132;2024-02-21T00:24:25;23.20;;;7.13;;
13252;SDS011;6693;54.370;10.132;2024-02-21T00:25:31;18.83;;;6.47;;
13252;SDS011;6693;54.370;10.132;2024-02-21T00:26:34;22.38;;;7.00;;
13252;SDS011;6693;54.370;10.132;2024-02-21T00:27:38;23.20;;;6.75;;
13252;SDS011;6693;54.370;10.132;2024-02-21T00:28:39;20.90;;;6.28;;
13252;SDS011;6693;54.370;10.132;2024-02-21T00:29:43;24.98;;;6.82;;
13252;SDS011;6693;54.370;10.132;2024-02-21T00:30:48;16.98;;;6.43;;
13252;SDS011;6693;54.370;10.132;2024-02-21T00:31:53;19.17;;;7.00;;
13252;SDS011;6693;54.370;10.132;2024-02-21T00:32:54;25.67;;;7.63;;
13252;SDS011;6693;54.370;10.132;2024-02-21T00:33:57;20.98;;;6.78;;
13252;SDS011;6693;54.370;10.132;2024-02-21T00:34:58;26.88;;;8.40;;
13252;SDS011;6693;54.370;10.132;2024-02-21T00:36:02;22.60;;;6.70;;
13252;SDS011;6693;54.370;10.132;2024-02-21T00:37:03;23.45;;;8.48;;
13252;SDS011;6693;54.370;10.132;2024-02-21T00:38:07;22.15;;;6.35;;
13252;SDS011;6693;54.370;10.132;2024-02-21T00:39:08;21.77;;;7.88;;
13252;SDS011;6693;54.370;10.132;2024-02-21T00:40:12;25.55;;;8.40;;
13252;SDS011;6693;54.370;10.132;2024-02-21T00:41:16;21.55;;;6.78;;
13252;SDS011;6693;54.370;10.132;2024-02-21T00:42:20;23.00;;;6.40;;
13252;SDS011;6693;54.370;10.132;2024-02-21T00:43:21;18.17;;;6.30;;
13252;SDS011;6693;54.370;10.132;2024-02-21T00:44:26;25.67;;;7.75;;
13252;SDS011;6693;54.370;10.132;2024-02-21T00:45:27;25.42;;;7.20;;
13252;SDS011;6693;54.370;10.132;2024-02-21T00:46:30;25.60;;;8.02;;
13252;SDS011;6693;54.370;10.132;2024-02-21T00:47:34;24.45;;;7.78;;
13252;SDS011;6693;54.370;10.132;2024-02-21T00:48:35;21.77;;;6.78;;
13252;SDS011;6693;54.370;10.132;2024-02-21T00:49:39;21.08;;;8.43;;
13252;SDS011;6693;54.370;10.132;2024-02-21T00:50:42;21.02;;;6.72;;
13252;SDS011;6693;54.370;10.132;2024-02-21T00:51:46;22.80;;;7.50;;
13252;SDS011;6693;54.370;10.132;2024-02-21T00:52:47;21.02;;;7.35;;
13252;SDS011;6693;54.370;10.132;2024-02-21T00:53:51;18.38;;;6.85;;
13252;SDS011;6693;54.370;10.132;2024-02-21T00:54:51;16.08;;;6.40;;
13252;SDS011;6693;54.370;10.132;2024-02-21T00:56:00;20.05;;;7.25;;
13252;SDS011;6693;54.370;10.132;2024-02-21T00:57:02;23.88;;;6.82;;
13252;SDS011;6693;54.370;10.132;2024-02-21T00:58:06;19.38;;;7.35;;
13252;SDS011;6693;54.370;10.132;2024-02-21T00:59:09;21.15;;;7.47;;
13252;SDS011;6693;54.370;10.132;2024-02-21T01:00:13;15.98;;;5.47;;
13252;SDS011;6693;54.370;10.132;2024-02-21T01:01:20;21.55;;;6.90;;
13252;SDS011;6693;54.370;10.132;2024-02-21T01:02:27;15.98;;;6.20;;
13252;SDS011;6693;54.370;10.132;2024-02-21T01:03:28;20.13;;;6.78;;
13252;SDS011;6693;54.370;10.132;2024-02-21T01:04:32;16.40;;;6.28;;
13252;SDS011;6693;54.370;10.132;2024-02-21T01:05:33;19.35;;;6.70;;
13252;SDS011;6693;54.370;10.132;2024-02-21T01:06:36;19.83;;;7.53;;
13252;SDS011;6693;54.370;10.132;2024-02-21T01:07:37;20.38;;;7.28;;
13252;SDS011;6693;54.370;10.132;2024-02-21T01:08:38;22.45;;;7.88;;
13252;SDS011;6693;54.370;10.132;2024-02-21T01:09:42;18.30;;;6.38;;
13252;SDS011;6693;54.370;10.132;2024-02-21T01:10:43;21.33;;;7.03;;
13252;SDS011;6693;54.370;10.132;2024-02-21T01:11:47;20.48;;;7.20;;
13252;SDS011;6693;54.370;10.132;2024-02-21T01:12:48;15.40;;;5.85;;
13252;SDS011;6693;54.370;10.132;2024-02-21T01:13:54;21.85;;;7.43;;
13252;SDS011;6693;54.370;10.132;2024-02-21T01:14:55;15.93;;;6.40;;
13252;SDS011;6693;54.370;10.132;2024-02-21T01:15:56;22.60;;;6.88;;
13252;SDS011;6693;54.370;10.132;2024-02-21T01:17:00;22.60;;;7.47;;
13252;SDS011;6693;54.370;10.132;2024-02-21T01:18:04;21.40;;;7.75;;
13252;SDS011;6693;54.370;10.132;2024-02-21T01:19:08;20.05;;;6.28;;
13252;SDS011;6693;54.370;10.132;2024-02-21T01:20:11;20.83;;;7.50;;
13252;SDS011;6693;54.370;10.132;2024-02-21T01:21:15;18.63;;;7.10;;
13252;SDS011;6693;54.370;10.132;2024-02-21T01:22:16;20.88;;;7.03;;
13252;SDS011;6693;54.370;10.132;2024-02-21T01:23:18;23.88;;;7.22;;
13252;SDS011;6693;54.370;10.132;2024-02-21T01:24:21;22.23;;;7.97;;
13252;SDS011;6693;54.370;10.132;2024-02-21T01:25:22;19.92;;;7.55;;
13252;SDS011;6693;54.370;10.132;2024-02-21T01:26:26;20.23;;;7.38;;
13252;SDS011;6693;54.370;10.132;2024-02-21T01:27:27;19.10;;;7.15;;
13252;SDS011;6693;54.370;10.132;2024-02-21T01:28:31;14.07;;;5.55;;
13252;SDS011;6693;54.370;10.132;2024-02-21T01:29:34;15.02;;;6.18;;
13252;SDS011;6693;54.370;10.132;2024-02-21T01:30:38;17.83;;;6.25;;
13252;SDS011;6693;54.370;10.132;2024-02-21T01:31:39;14.38;;;5.70;;
13252;SDS011;6693;54.370;10.132;2024-02-21T01:32:42;21.75;;;7.00;;
13252;SDS011;6693;54.370;10.132;2024-02-21T01:33:48;15.88;;;4.68;;
13252;SDS011;6693;54.370;10.132;2024-02-21T01:34:52;14.90;;;5.03;;
13252;SDS011;6693;54.370;10.132;2024-02-21T01:35:53;12.82;;;4.97;;
13252;SDS011;6693;54.370;10.132;2024-02-21T01:36:53;14.10;;;5.75;;
13252;SDS011;6693;54.370;10.132;2024-02-21T01:38:18;17.13;;;6.32;;
13252;SDS011;6693;54.370;10.132;2024-02-21T01:39:21;12.70;;;4.50;;
13252;SDS011;6693;54.370;10.132;2024-02-21T01:40:25;14.43;;;4.95;;
13252;SDS011;6693;54.370;10.132;2024-02-21T01:41:26;14.20;;;5.72;;
13252;SDS011;6693;54.370;10.132;2024-02-21T01:42:31;10.55;;;4.38;;
13252;SDS011;6693;54.370;10.132;2024-02-21T01:43:36;15.43;;;4.82;;
13252;SDS011;6693;54.370;10.132;2024-02-21T01:44:42;13.88;;;5.20;;
13252;SDS011;6693;54.370;10.132;2024-02-21T01:45:45;18.13;;;5.68;;
13252;SDS011;6693;54.370;10.132;2024-02-21T01:46:51;17.17;;;5.35;;
13252;SDS011;6693;54.370;10.132;2024-02-21T01:47:53;14.10;;;4.93;;
13252;SDS011;6693;54.370;10.132;2024-02-21T01:48:59;16.40;;;5.60;;
13252;SDS011;6693;54.370;10.132;2024-02-21T01:50:00;18.33;;;6.00;;
13252;SDS011;6693;54.370;10.132;2024-02-21T01:51:05;11.73;;;4.97;;
13252;SDS011;6693;54.370;10.132;2024-02-21T01:52:06;19.17;;;6.03;;
13252;SDS011;6693;54.370;10.132;2024-02-21T01:53:12;16.17;;;5.53;;
13252;SDS011;6693;54.370;10.132;2024-02-21T01:54:18;15.20;;;5.47;;
13252;SDS011;6693;54.370;10.132;2024-02-21T01:55:29;12.45;;;4.63;;
13252;SDS011;6693;54.370;10.132;2024-02-21T01:56:30;15.38;;;5.13;;
13252;SDS011;6693;54.370;10.132;2024-02-21T01:57:34;13.45;;;5.28;;
13252;SDS011;6693;54.370;10.132;2024-02-21T01:58:36;15.20;;;5.85;;
13252;SDS011;6693;54.370;10.132;2024-02-21T01:59:40;15.40;;;5.07;;
13252;SDS011;6693;54.370;10.132;2024-02-21T02:00:43;13.30;;;5.38;;
13252;SDS011;6693;54.370;10.132;2024-02-21T02:01:47;16.33;;;5.45;;
13252;SDS011;6693;54.370;10.132;2024-02-21T02:02:48;15.05;;;4.82;;
13252;SDS011;6693;54.370;10.132;2024-02-21T02:03:52;14.70;;;6.15;;
13252;SDS011;6693;54.370;10.132;2024-02-21T02:04:56;15.57;;;5.47;;
13252;SDS011;6693;54.370;10.132;2024-02-21T02:06:00;16.92;;;5.57;;
13252;SDS011;6693;54.370;10.132;2024-02-21T02:07:03;16.35;;;5.93;;
13252;SDS011;6693;54.370;10.132;2024-02-21T02:08:06;13.50;;;4.72;;
13252;SDS011;6693;54.370;10.132;2024-02-21T02:09:10;17.00;;;5.10;;
13252;SDS011;6693;54.370;10.132;2024-02-21T02:10:12;18.33;;;6.25;;
13252;SDS011;6693;54.370;10.132;2024-02-21T02:11:15;11.55;;;4.97;;
13252;SDS011;6693;54.370;10.132;2024-02-21T02:12:16;16.27;;;6.05;;
13252;SDS011;6693;54.370;10.132;2024-02-21T02:13:20;10.50;;;4.88;;
13252;SDS011;6693;54.370;10.132;2024-02-21T02:14:21;12.52;;;5.22;;
13252;SDS011;6693;54.370;10.132;2024-02-21T02:15:24;15.20;;;6.45;;
13252;SDS011;6693;54.370;10.132;2024-02-21T02:16:25;13.32;;;5.20;;
13252;SDS011;6693;54.370;10.132;2024-02-21T02:17:26;9.35;;;4.35;;
13252;SDS011;6693;54.370;10.132;2024-02-21T02:18:30;13.40;;;5.60;;
13252;SDS011;6693;54.370;10.132;2024-02-21T02:19:31;13.80;;;5.65;;
13252;SDS011;6693;54.370;10.132;2024-02-21T02:20:36;11.13;;;5.05;;
13252;SDS011;6693;54.370;10.132;2024-02-21T02:21:41;12.95;;;4.63;;
13252;SDS011;6693;54.370;10.132;2024-02-21T02:22:46;13.50;;;4.70;;
13252;SDS011;6693;54.370;10.132;2024-02-21T02:23:54;13.45;;;5.05;;
13252;SDS011;6693;54.370;10.132;2024-02-21T02:24:55;14.63;;;4.43;;
13252;SDS011;6693;54.370;10.132;2024-02-21T02:25:59;13.43;;;5.70;;
13252;SDS011;6693;54.370;10.132;2024-02-21T02:29:08;10.27;;;4.50;;
13252;SDS011;6693;54.370;10.132;2024-02-21T02:30:11;12.30;;;4.70;;
13252;SDS011;6693;54.370;10.132;2024-02-21T02:31:13;14.52;;;5.13;;
13252;SDS011;6693;54.370;10.132;2024-02-21T02:32:16;10.80;;;3.95;;
13252;SDS011;6693;54.370;10.132;2024-02-21T02:33:17;12.60;;;4.20;;
13252;SDS011;6693;54.370;10.132;2024-02-21T02:34:21;12.82;;;5.03;;
13252;SDS011;6693;54.370;10.132;2024-02-21T02:35:22;16.52;;;4.82;;
13252;SDS011;6693;54.370;10.132;2024-02-21T02:36:26;12.68;;;4.75;;
13252;SDS011;6693;54.370;10.132;2024-02-21T02:37:26;16.55;;;5.90;;
13252;SDS011;6693;54.370;10.132;2024-02-21T02:38:30;13.68;;;5.10;;
13252;SDS011;6693;54.370;10.132;2024-02-21T02:39:34;13.50;;;5.10;;
13252;SDS011;6693;54.370;10.132;2024-02-21T02:40:42;13.63;;;4.35;;
13252;SDS011;6693;54.370;10.132;2024-02-21T02:41:44;14.65;;;5.15;;
13252;SDS011;6693;54.370;10.132;2024-02-21T02:42:50;16.17;;;5.25;;
13252;SDS011;6693;54.370;10.132;2024-02-21T02:43:51;13.05;;;5.07;;
13252;SDS011;6693;54.370;10.132;2024-02-21T02:44:57;10.45;;;4.45;;
13252;SDS011;6693;54.370;10.132;2024-02-21T02:46:00;14.07;;;4.88;;
13252;SDS011;6693;54.370;10.132;2024-02-21T02:47:01;13.30;;;4.88;;
13252;SDS011;6693;54.370;10.132;2024-02-21T02:48:06;9.25;;;3.65;;
13252;SDS011;6693;54.370;10.132;2024-02-21T02:49:07;11.20;;;4.22;;
13252;SDS011;6693;54.370;10.132;2024-02-21T02:50:11;10.48;;;4.28;;
13252;SDS011;6693;54.370;10.132;2024-02-21T02:51:14;12.75;;;4.53;;
13252;SDS011;6693;54.370;10.132;2024-02-21T02:52:15;11.52;;;4.35;;
13252;SDS011;6693;54.370;10.132;2024-02-21T02:53:21;12.07;;;3.63;;
13252;SDS011;6693;54.370;10.132;2024-02-21T02:54:29;12.07;;;4.40;;
13252;SDS011;6693;54.370;10.132;2024-02-21T02:55:35;12.27;;;4.25;;
13252;SDS011;6693;54.370;10.132;2024-02-21T02:56:36;12.73;;;3.90;;
13252;SDS011;6693;54.370;10.132;2024-02-21T02:57:42;10.10;;;3.05;;
13252;SDS011;6693;54.370;10.132;2024-02-21T02:58:43;12.60;;;4.05;;
13252;SDS011;6693;54.370;10.132;2024-02-21T02:59:47;8.48;;;3.13;;
13252;SDS011;6693;54.370;10.132;2024-02-21T03:00:55;11.02;;;3.40;;
13252;SDS011;6693;54.370;10.132;2024-02-21T03:01:59;6.32;;;2.53;;
13252;SDS011;6693;54.370;10.132;2024-02-21T03:03:00;9.02;;;3.42;;
13252;SDS011;6693;54.370;10.132;2024-02-21T03:04:04;11.43;;;2.97;;
13252;SDS011;6693;54.370;10.132;2024-02-21T03:05:11;10.65;;;3.47;;
13252;SDS011;6693;54.370;10.132;2024-02-21T03:06:12;7.75;;;2.28;;
13252;SDS011;6693;54.370;10.132;2024-02-21T03:07:19;7.95;;;3.13;;
13252;SDS011;6693;54.370;10.132;2024-02-21T03:09:23;6.65;;;2.20;;
13252;SDS011;6693;54.370;10.132;2024-02-21T03:10:26;8.45;;;2.65;;
13252;SDS011;6693;54.370;10.132;2024-02-21T03:11:35;7.10;;;2.30;;
13252;SDS011;6693;54.370;10.132;2024-02-21T03:12:41;7.13;;;2.70;;
13252;SDS011;6693;54.370;10.132;2024-02-21T03:13:42;7.82;;;2.22;;
13252;SDS011;6693;54.370;10.132;2024-02-21T03:14:46;10.98;;;2.88;;
13252;SDS011;6693;54.370;10.132;2024-02-21T03:15:46;7.82;;;2.42;;
13252;SDS011;6693;54.370;10.132;2024-02-21T03:16:51;6.47;;;2.65;;
13252;SDS011;6693;54.370;10.132;2024-02-21T03:17:52;7.43;;;2.20;;
13252;SDS011;6693;54.370;10.132;2024-02-21T03:18:56;8.18;;;2.58;;
13252;SDS011;6693;54.370;10.132;2024-02-21T03:19:57;7.82;;;2.75;;
13252;SDS011;6693;54.370;10.132;2024-02-21T03:21:01;7.93;;;2.50;;
13252;SDS011;6693;54.370;10.132;2024-02-21T03:22:03;8.38;;;2.45;;
13252;SDS011;6693;54.370;10.132;2024-02-21T03:23:06;5.93;;;1.88;;
13252;SDS011;6693;54.370;10.132;2024-02-21T03:24:10;5.28;;;1.80;;
13252;SDS011;6693;54.370;10.132;2024-02-21T03:25:11;6.68;;;1.50;;
13252;SDS011;6693;54.370;10.132;2024-02-21T03:26:15;5.15;;;1.70;;
13252;SDS011;6693;54.370;10.132;2024-02-21T03:27:20;7.20;;;2.17;;
13252;SDS011;6693;54.370;10.132;2024-02-21T03:28:23;8.02;;;2.25;;
13252;SDS011;6693;54.370;10.132;2024-02-21T03:29:24;4.53;;;2.10;;
13252;SDS011;6693;54.370;10.132;2024-02-21T03:30:28;4.90;;;1.50;;
13252;SDS011;6693;54.370;10.132;2024-02-21T03:31:29;7.63;;;2.33;;
13252;SDS011;6693;54.370;10.132;2024-02-21T03:32:37;6.30;;;1.90;;
13252;SDS011;6693;54.370;10.132;2024-02-21T03:33:42;5.45;;;2.00;;
13252;SDS011;6693;54.370;10.132;2024-02-21T03:34:43;6.55;;;1.98;;
13252;SDS011;6693;54.370;10.132;2024-02-21T03:35:47;6.57;;;2.00;;
13252;SDS011;6693;54.370;10.132;2024-02-21T03:36:48;6.57;;;2.42;;
13252;SDS011;6693;54.370;10.132;2024-02-21T03:37:52;5.93;;;2.10;;
13252;SDS011;6693;54.370;10.132;2024-02-21T03:38:54;6.07;;;1.80;;
13252;SDS011;6693;54.370;10.132;2024-02-21T03:39:59;5.72;;;2.00;;
13252;SDS011;6693;54.370;10.132;2024-02-21T03:41:00;6.50;;;1.88;;
13252;SDS011;6693;54.370;10.132;2024-02-21T03:42:04;3.95;;;1.48;;
13252;SDS011;6693;54.370;10.132;2024-02-21T03:44:11;5.55;;;1.30;;
13252;SDS011;6693;54.370;10.132;2024-02-21T03:45:12;5.70;;;1.35;;
13252;SDS011;6693;54.370;10.132;2024-02-21T03:46:16;4.13;;;1.10;;
13252;SDS011;6693;54.370;10.132;2024-02-21T03:47:17;3.80;;;1.10;;
13252;SDS011;6693;54.370;10.132;2024-02-21T03:48:18;4.13;;;0.80;;
13252;SDS011;6693;54.370;10.132;2024-02-21T03:49:24;5.03;;;1.13;;
13252;SDS011;6693;54.370;10.132;2024-02-21T03:50:25;4.38;;;1.00;;
13252;SDS011;6693;54.370;10.132;2024-02-21T03:51:29;2.78;;;0.60;;
13252;SDS011;6693;54.370;10.132;2024-02-21T03:52:32;4.40;;;1.17;;
13252;SDS011;6693;54.370;10.132;2024-02-21T03:53:33;5.15;;;1.00;;
13252;SDS011;6693;54.370;10.132;2024-02-21T03:54:39;4.22;;;0.77;;
13252;SDS011;6693;54.370;10.132;2024-02-21T03:55:40;6.63;;;1.08;;
13252;SDS011;6693;54.370;10.132;2024-02-21T03:56:44;3.90;;;0.88;;
13252;SDS011;6693;54.370;10.132;2024-02-21T03:57:45;4.20;;;0.90;;
13252;SDS011;6693;54.370;10.132;2024-02-21T03:58:51;4.13;;;1.10;;
13252;SDS011;6693;54.370;10.132;2024-02-21T03:59:52;4.53;;;1.05;;
13252;SDS011;6693;54.370;10.132;2024-02-21T04:00:56;4.95;;;1.00;;
13252;SDS011;6693;54.370;10.132;2024-02-21T04:02:02;5.07;;;1.00;;
13252;SDS011;6693;54.370;10.132;2024-02-21T04:03:11;5.28;;;0.85;;
13252;SDS011;6693;54.370;10.132;2024-02-21T04:04:12;5.60;;;0.93;;
13252;SDS011;6693;54.370;10.132;2024-02-21T04:05:15;6.65;;;1.15;;
13252;SDS011;6693;54.370;10.132;2024-02-21T04:06:19;6.25;;;1.30;;
13252;SDS011;6693;54.370;10.132;2024-02-21T04:07:22;5.85;;;1.23;;
13252;SDS011;6693;54.370;10.132;2024-02-21T04:08:26;5.15;;;1.10;;
13252;SDS011;6693;54.370;10.132;2024-02-21T04:09:30;7.55;;;1.50;;
13252;SDS011;6693;54.370;10.132;2024-02-21T04:10:30;7.57;;;1.17;;
13252;SDS011;6693;54.370;10.132;2024-02-21T04:11:35;6.05;;;1.20;;
13252;SDS011;6693;54.370;10.132;2024-02-21T04:12:39;7.70;;;1.27;;
13252;SDS011;6693;54.370;10.132;2024-02-21T04:13:42;7.90;;;1.52;;
13252;SDS011;6693;54.370;10.132;2024-02-21T04:14:46;7.10;;;1.40;;
13252;SDS011;6693;54.370;10.132;2024-02-21T04:15:51;8.35;;;1.50;;
13252;SDS011;6693;54.370;10.132;2024-02-21T04:16:51;8.98;;;2.33;;
13252;SDS011;6693;54.370;10.132;2024-02-21T04:17:55;7.78;;;1.52;;
13252;SDS011;6693;54.370;10.132;2024-02-21T04:18:56;8.18;;;1.63;;
13252;SDS011;6693;54.370;10.132;2024-02-21T04:20:04;8.90;;;1.63;;
13252;SDS011;6693;54.370;10.132;2024-02-21T04:21:08;8.57;;;1.30;;
13252;SDS011;6693;54.370;10.132;2024-02-21T04:22:12;7.90;;;1.80;;
13252;SDS011;6693;54.370;10.132;2024-02-21T04:23:13;9.40;;;1.73;;
13252;SDS011;6693;54.370;10.132;2024-02-21T04:24:16;6.95;;;1.33;;
13252;SDS011;6693;54.370;10.132;2024-02-21T04:25:17;9.38;;;1.80;;
13252;SDS011;6693;54.370;10.132;2024-02-21T04:26:23;7.45;;;1.85;;
13252;SDS011;6693;54.370;10.132;2024-02-21T04:27:24;12.30;;;2.92;;
13252;SDS011;6693;54.370;10.132;2024-02-21T04:28:28;9.82;;;1.90;;
13252;SDS011;6693;54.370;10.132;2024-02-21T04:29:29;7.03;;;2.10;;
13252;SDS011;6693;54.370;10.132;2024-02-21T04:30:37;10.50;;;2.10;;
13252;SDS011;6693;54.370;10.132;2024-02-21T04:31:40;8.50;;;1.98;;
13252;SDS011;6693;54.370;10.132;2024-02-21T04:32:41;8.18;;;1.92;;
13252;SDS011;6693;54.370;10.132;2024-02-21T04:33:45;10.82;;;2.20;;
13252;SDS011;6693;54.370;10.132;2024-02-21T04:34:46;9.05;;;1.90;;
13252;SDS011;6693;54.370;10.132;2024-02-21T04:35:49;8.43;;;1.88;;
13252;SDS011;6693;54.370;10.132;2024-02-21T04:36:50;11.18;;;2.40;;
13252;SDS011;6693;54.370;10.132;2024-02-21T04:37:57;18.00;;;1.92;;
13252;SDS011;6693;54.370;10.132;2024-02-21T04:38:58;16.05;;;2.30;;
13252;SDS011;6693;54.370;10.132;2024-02-21T04:40:01;9.82;;;1.80;;
13252;SDS011;6693;54.370;10.132;2024-02-21T04:41:04;10.93;;;1.80;;
13252;SDS011;6693;54.370;10.132;2024-02-21T04:42:05;14.68;;;2.30;;
13252;SDS011;6693;54.370;10.132;2024-02-21T04:43:09;10.13;;;2.08;;
13252;SDS011;6693;54.370;10.132;2024-02-21T04:44:10;12.02;;;1.95;;
13252;SDS011;6693;54.370;10.132;2024-02-21T04:45:14;11.48;;;1.75;;
13252;SDS011;6693;54.370;10.132;2024-02-21T04:46:18;12.57;;;2.08;;
13252;SDS011;6693;54.370;10.132;2024-02-21T04:47:21;10.52;;;2.05;;
13252;SDS011;6693;54.370;10.132;2024-02-21T04:48:23;10.82;;;1.67;;
13252;SDS011;6693;54.370;10.132;2024-02-21T04:49:27;10.45;;;2.00;;
13252;SDS011;6693;54.370;10.132;2024-02-21T04:50:29;10.30;;;1.60;;
13252;SDS011;6693;54.370;10.132;2024-02-21T04:51:32;10.10;;;1.80;;
13252;SDS011;6693;54.370;10.132;2024-02-21T04:52:33;10.10;;;2.20;;
13252;SDS011;6693;54.370;10.132;2024-02-21T04:53:37;10.13;;;2.03;;
13252;SDS011;6693;54.370;10.132;2024-02-21T04:54:38;15.45;;;2.10;;
13252;SDS011;6693;54.370;10.132;2024-02-21T04:55:44;13.88;;;2.47;;
13252;SDS011;6693;54.370;10.132;2024-02-21T04:56:47;12.13;;;2.00;;
13252;SDS011;6693;54.370;10.132;2024-02-21T04:58:00;14.15;;;2.15;;
13252;SDS011;6693;54.370;10.132;2024-02-21T04:59:02;14.00;;;1.88;;
13252;SDS011;6693;54.370;10.132;2024-02-21T05:00:04;15.43;;;2.22;;
13252;SDS011;6693;54.370;10.132;2024-02-21T05:01:09;16.15;;;2.45;;
13252;SDS011;6693;54.370;10.132;2024-02-21T05:02:12;12.13;;;1.90;;
13252;SDS011;6693;54.370;10.132;2024-02-21T05:03:13;16.48;;;2.60;;
13252;SDS011;6693;54.370;10.132;2024-02-21T05:04:18;14.95;;;2.42;;
13252;SDS011;6693;54.370;10.132;2024-02-21T05:05:19;11.77;;;2.70;;
13252;SDS011;6693;54.370;10.132;2024-02-21T05:06:27;9.50;;;2.70;;
13252;SDS011;6693;54.370;10.132;2024-02-21T05:07:28;9.60;;;1.83;;
13252;SDS011;6693;54.370;10.132;2024-02-21T05:08:35;17.17;;;2.92;;
13252;SDS011;6693;54.370;10.132;2024-02-21T05:09:36;11.93;;;2.05;;
13252;SDS011;6693;54.370;10.132;2024-02-21T05:10:40;15.57;;;2.58;;
13252;SDS011;6693;54.370;10.132;2024-02-21T05:11:42;11.50;;;2.10;;
13252;SDS011;6693;54.370;10.132;2024-02-21T05:12:46;13.50;;;2.30;;
13252;SDS011;6693;54.370;10.132;2024-02-21T05:13:47;13.15;;;2.33;;
13252;SDS011;6693;54.370;10.132;2024-02-21T05:14:50;13.85;;;2.90;;
13252;SDS011;6693;54.370;10.132;2024-02-21T05:15:52;8.95;;;1.80;;
13252;SDS011;6693;54.370;10.132;2024-02-21T05:16:55;10.27;;;1.75;;
13252;SDS011;6693;54.370;10.132;2024-02-21T05:17:59;15.88;;;2.25;;
13252;SDS011;6693;54.370;10.132;2024-02-21T05:19:03;14.05;;;2.55;;
13252;SDS011;6693;54.370;10.132;2024-02-21T05:20:05;18.50;;;2.90;;
13252;SDS011;6693;54.370;10.132;2024-02-21T05:21:09;14.00;;;2.20;;
13252;SDS011;6693;54.370;10.132;2024-02-21T05:22:14;13.45;;;2.55;;
13252;SDS011;6693;54.370;10.132;2024-02-21T05:23:18;16.92;;;2.72;;
13252;SDS011;6693;54.370;10.132;2024-02-21T05:24:19;13.43;;;2.33;;
13252;SDS011;6693;54.370;10.132;2024-02-21T05:25:22;15.57;;;2.63;;
13252;SDS011;6693;54.370;10.132;2024-02-21T05:26:23;13.15;;;2.25;;
13252;SDS011;6693;54.370;10.132;2024-02-21T05:27:28;8.68;;;2.05;;
13252;SDS011;6693;54.370;10.132;2024-02-21T05:28:29;12.80;;;1.98;;
13252;SDS011;6693;54.370;10.132;2024-02-21T05:29:32;17.40;;;2.33;;
13252;SDS011;6693;54.370;10.132;2024-02-21T05:30:33;12.48;;;1.83;;
13252;SDS011;6693;54.370;10.132;2024-02-21T05:31:54;13.52;;;1.98;;
13252;SDS011;6693;54.370;10.132;2024-02-21T05:32:59;11.77;;;2.10;;
13252;SDS011;6693;54.370;10.132;2024-02-21T05:34:06;16.80;;;2.20;;
13252;SDS011;6693;54.370;10.132;2024-02-21T05:35:07;17.27;;;2.85;;
13252;SDS011;6693;54.370;10.132;2024-02-21T05:36:11;15.07;;;2.53;;
13252;SDS011;6693;54.370;10.132;2024-02-21T05:37:12;11.25;;;1.80;;
13252;SDS011;6693;54.370;10.132;2024-02-21T05:38:16;14.73;;;2.42;;
13252;SDS011;6693;54.370;10.132;2024-02-21T05:39:18;16.40;;;2.00;;
13252;SDS011;6693;54.370;10.132;2024-02-21T05:40:23;10.38;;;1.70;;
13252;SDS011;6693;54.370;10.132;2024-02-21T05:41:25;17.75;;;2.85;;
13252;SDS011;6693;54.370;10.132;2024-02-21T05:42:29;12.73;;;1.92;;
13252;SDS011;6693;54.370;10.132;2024-02-21T05:43:30;16.90;;;2.17;;
13252;SDS011;6693;54.370;10.132;2024-02-21T05:44:33;11.52;;;2.65;;
13252;SDS011;6693;54.370;10.132;2024-02-21T05:45:37;14.38;;;2.42;;
13252;SDS011;6693;54.370;10.132;2024-02-21T05:46:40;17.20;;;2.30;;
13252;SDS011;6693;54.370;10.132;2024-02-21T05:47:41;16.20;;;1.98;;
13252;SDS011;6693;54.370;10.132;2024-02-21T05:48:48;13.32;;;2.42;;
13252;SDS011;6693;54.370;10.132;2024-02-21T05:49:49;14.80;;;2.85;;
13252;SDS011;6693;54.370;10.132;2024-02-21T05:50:54;13.18;;;1.90;;
13252;SDS011;6693;54.370;10.132;2024-02-21T05:51:55;9.73;;;1.70;;
13252;SDS011;6693;54.370;10.132;2024-02-21T05:52:59;12.52;;;2.33;;
13252;SDS011;6693;54.370;10.132;2024-02-21T05:54:00;12.65;;;2.60;;
13252;SDS011;6693;54.370;10.132;2024-02-21T05:55:04;14.07;;;2.70;;
13252;SDS011;6693;54.370;10.132;2024-02-21T05:57:09;17.75;;;1.90;;
13252;SDS011;6693;54.370;10.132;2024-02-21T05:58:10;16.38;;;1.98;;
13252;SDS011;6693;54.370;10.132;2024-02-21T05:59:14;10.02;;;2.00;;
13252;SDS011;6693;54.370;10.132;2024-02-21T06:00:17;13.80;;;2.58;;
13252;SDS011;6693;54.370;10.132;2024-02-21T06:01:21;10.80;;;1.63;;
13252;SDS011;6693;54.370;10.132;2024-02-21T06:03:26;15.75;;;2.08;;
13252;SDS011;6693;54.370;10.132;2024-02-21T06:04:31;9.50;;;1.70;;
13252;SDS011;6693;54.370;10.132;2024-02-21T06:05:36;10.85;;;1.60;;
13252;SDS011;6693;54.370;10.132;2024-02-21T06:06:38;10.60;;;2.33;;
13252;SDS011;6693;54.370;10.132;2024-02-21T06:07:42;14.73;;;2.00;;
13252;SDS011;6693;54.370;10.132;2024-02-21T06:08:42;13.40;;;2.10;;
13252;SDS011;6693;54.370;10.132;2024-02-21T06:09:45;11.20;;;1.77;;
13252;SDS011;6693;54.370;10.132;2024-02-21T06:10:48;19.88;;;3.25;;
13252;SDS011;6693;54.370;10.132;2024-02-21T06:11:52;13.90;;;2.63;;
13252;SDS011;6693;54.370;10.132;2024-02-21T06:12:56;14.27;;;2.00;;
13252;SDS011;6693;54.370;10.132;2024-02-21T06:13:57;16.52;;;3.08;;
13252;SDS011;6693;54.370;10.132;2024-02-21T06:15:01;12.88;;;2.10;;
13252;SDS011;6693;54.370;10.132;2024-02-21T06:16:03;11.27;;;1.80;;
13252;SDS011;6693;54.370;10.132;2024-02-21T06:17:08;10.57;;;2.05;;
13252;SDS011;6693;54.370;10.132;2024-02-21T06:18:11;12.85;;;1.92;;
13252;SDS011;6693;54.370;10.132;2024-02-21T06:19:14;12.70;;;2.03;;
13252;SDS011;6693;54.370;10.132;2024-02-21T06:20:18;10.70;;;1.73;;
13252;SDS011;6693;54.370;10.132;2024-02-21T06:21:22;10.70;;;1.83;;
13252;SDS011;6693;54.370;10.132;2024-02-21T06:22:23;12.20;;;2.00;;
13252;SDS011;6693;54.370;10.132;2024-02-21T06:23:26;9.60;;;1.50;;